Terminal Aerodrome Forecast
Issued by NWS

Home | Current Version | Previous Version | Text Only | Print | Product List | Glossary On
Versions: 1 2 3 4 5 6 7 8 9 10 11 12 13 14 15 16 17 18 19 20 21 22 23 24 25 26 27 28 29 30 31 32 33 34 35 36 37 38 39 40 41 42
000
FTUS45 KSLC 171752
TAFLGU
TAF
KLGU 171752Z 1718/1818 18006KT P6SM -SHRA SCT020 OVC040
     FM172000 20006KT 5SM -RA BKN020
     FM180300 36005KT 1SM -SN BR SCT006 BKN015 OVC030
     FM181100 VRB04KT 4SM -SHSN BR BKN015 OVC030
     FM181500 VRB04KT P6SM VCSH SCT020 OVC030=

USA.gov is the U.S. government's official web portal to all federal, state and local government web resources and services.